Rice, WA

3:38 AM PST on January 31, 2015 (GMT -0800)
KWAKETTL2 | Change Station
CLOSE
Current Station
Personal Weather Station
Location: Kettle Falls, WA
Elevation: 1900 ft
Nearby Weather Stations

Elev 1900 ft 48.49 °N, 118.16 °W | Updated 55 seconds ago

Overcast
Overcast
31.8 °F
Feels Like 28 °F
N
3.8
Wind Variable Wind from ENE
Gusts 3.8 mph

Today
High -- | Low -- °F
--% Chance of Precip.
Yesterday
High -- | Low -- °F
Precip. -- in
7:22 AM 4:49 PM
Waxing Gibbous, 89% visible
Pressure 30.32 in
Visibility 4.0 miles
Clouds Mostly Cloudy 300 ft
Overcast 1900 ft
Windchill 28 °F
Dew Point 31 °F
Humidity 98%
Rainfall 0.00 in
Snow Depth Not available.
UV 0 out of 12
Pollen .40 out of 12
Air Quality Not available.
Flu Activity Not available.
METAR KDEW 311053Z AUTO 00000KT 4SM BR BKN003 OVC019 M02/M02 A3024 RMK AO2 SLP266 T10171022

More Conditions Fewer Conditions

Pressure 30.32 in
Visibility 4.0 miles
Clouds Mostly Cloudy 300 ft
Overcast 1900 ft
Windchill 28 °F
Dew Point 31 °F
Humidity 98%
Rainfall 0.00 in
Snow Depth Not available.
UV 0 out of 12
Pollen .40 out of 12
Air Quality Not available.
Flu Activity Not available.
METAR KDEW 311053Z AUTO 00000KT 4SM BR BKN003 OVC019 M02/M02 A3024 RMK AO2 SLP266 T10171022

More Conditions Fewer Conditions

10-Day Weather Forecast

Almanac

Astronomy

Jan. 31, 2015 Rise Set
Actual Time
Civil Twilight
Nautical Twilight
Astronomical Twilight
Moon
Length of Visible Light
Length of Day
Tomorrow will be .
, % of the Moon is Illuminated

Today's Extremes

State Highs State Lows

Community

WunderPhotos

Upload Photos

1,792,032 photos uploaded!

WunderBlogs® & News

Nearby

Air Quality

  Air Quality AQ Index Pollutant
Not available.

Snow Depth

Station Depth Elevation

Earthquake Activity

City Distance Mag. Time & Date
Minimum magnitude displayed is 2.5.

Coastal Water Temperatures

Place Temperature

Nearby Weather Stations